Time;durP1;ratioP1;P1;durP2;ratioP2;P2;SDS_P1;SDS_P2;PMS_P1;PMS_P2;Temp;Humidity;BMP_temperature;BMP_pressure;BME280_temperature;BME280_humidity;BME280_pressure;Samples;Min_cycle;Max_cycle;Signal;HPM_P1;HPM_P2
2021/07/17 00:00:26;;;;;;;;;;;;;;;23.50;58.72;100296.44;5024673;28;1910;-41
2021/07/17 00:02:53;;;;;;;;;;;;;;;23.53;58.35;100295.22;5017271;28;1498;-41
2021/07/17 00:05:19;;;;;;;;;;;;;;;23.48;58.67;100281.44;5019927;28;1934;-41
2021/07/17 00:07:48;;;;;;;;;;;;;;;23.49;58.93;100277.72;5017404;28;1067;-41
2021/07/17 00:10:14;;;;;;;;;;;;;;;23.47;58.80;100280.59;5017074;28;1168;-41
2021/07/17 00:12:41;;;;;;;;;;;;;;;23.48;58.63;100274.19;5017024;28;1084;-41
2021/07/17 00:15:08;;;;;;;;;;;;;;;23.46;58.58;100292.41;5023597;28;1520;-41
2021/07/17 00:17:34;;;;;;;;;;;;;;;23.45;58.53;100274.53;5037038;28;1078;-41
2021/07/17 00:20:01;;;;;;;;;;;;;;;23.48;58.63;100276.06;5036839;28;1906;-41
2021/07/17 00:22:27;;;;;;;;;;;;;;;23.42;58.65;100283.81;5036983;28;1049;-41
2021/07/17 00:24:55;;;;;;;;;;;;;;;23.20;58.95;100281.91;5032545;28;1591;-41
2021/07/17 00:27:21;;;;;;;;;;;;;;;22.97;59.46;100281.78;5017133;28;1002;-41
2021/07/17 00:29:48;;;;;;;;;;;;;;;22.96;59.23;100294.44;5018564;28;1583;-42
2021/07/17 00:32:14;;;;;;;;;;;;;;;22.98;59.39;100278.91;5036960;28;1090;-41
2021/07/17 00:34:41;;;;;;;;;;;;;;;22.94;59.36;100274.03;5036486;28;1091;-41
2021/07/17 00:37:08;;;;;;;;;;;;;;;22.99;59.23;100277.88;5036424;28;1111;-41
2021/07/17 00:39:34;;;;;;;;;;;;;;;22.93;59.28;100269.66;5036354;28;1910;-41
2021/07/17 00:42:02;;;;;;;;;;;;;;;23.05;59.05;100275.56;5036950;28;1061;-41
2021/07/17 00:44:29;;;;;;;;;;;;;;;22.94;59.23;100285.69;5031351;28;1694;-41
2021/07/17 00:46:56;;;;;;;;;;;;;;;22.98;58.93;100270.84;5016786;28;1066;-41
2021/07/17 00:49:26;;;;;;;;;;;;;;;23.04;58.95;100277.41;5016658;28;1123;-41
2021/07/17 00:51:53;;;;;;;;;;;;;;;23.09;58.75;100277.72;5016921;28;994;-41
2021/07/17 00:54:19;;;;;;;;;;;;;;;23.04;58.89;100282.81;5016859;28;1950;-41
2021/07/17 00:56:47;;;;;;;;;;;;;;;22.84;59.19;100267.00;5016221;28;1512;-41
2021/07/17 00:59:16;;;;;;;;;;;;;;;22.83;59.13;100269.84;5021209;28;1607;-41
2021/07/17 01:01:43;;;;;;;;;;;;;;;22.74;59.49;100273.56;5035960;28;1971;-41
2021/07/17 01:04:10;;;;;;;;;;;;;;;22.49;60.08;100279.03;5035862;28;1346;-41
2021/07/17 01:06:36;;;;;;;;;;;;;;;22.43;59.88;100269.75;5036142;28;1046;-41
2021/07/17 01:09:03;;;;;;;;;;;;;;;22.40;59.80;100258.47;5036058;28;1086;-41
2021/07/17 01:11:29;;;;;;;;;;;;;;;22.49;59.78;100273.63;5036063;28;999;-41
2021/07/17 01:13:56;;;;;;;;;;;;;;;22.47;59.95;100264.06;5035460;28;1657;-41
2021/07/17 01:16:23;;;;;;;;;;;;;;;22.56;59.33;100263.00;5035661;28;1158;-41
2021/07/17 01:18:50;;;;;;;;;;;;;;;22.72;59.00;100251.34;5035948;28;1075;-41
2021/07/17 01:21:18;;;;;;;;;;;;;;;22.85;58.67;100259.75;5035443;28;1975;-41
2021/07/17 01:23:45;;;;;;;;;;;;;;;22.71;59.11;100250.50;5035855;28;1077;-41
2021/07/17 01:26:12;;;;;;;;;;;;;;;22.76;58.82;100248.16;5036091;28;1084;-41
2021/07/17 01:28:39;;;;;;;;;;;;;;;22.87;58.60;100254.19;5031047;28;1676;-41
2021/07/17 01:31:05;;;;;;;;;;;;;;;22.89;58.59;100255.69;5015942;28;1064;-41
2021/07/17 01:33:32;;;;;;;;;;;;;;;22.88;58.53;100237.84;5015503;28;1274;-41
2021/07/17 01:35:58;;;;;;;;;;;;;;;22.98;58.36;100251.97;5015545;28;1080;-41
2021/07/17 01:38:26;;;;;;;;;;;;;;;23.03;58.35;100251.47;5015763;28;1002;-41
2021/07/17 01:40:53;;;;;;;;;;;;;;;23.05;58.11;100251.28;5015645;28;1984;-41
2021/07/17 01:43:20;;;;;;;;;;;;;;;23.10;58.13;100246.19;5019475;28;1772;-41
2021/07/17 01:45:46;;;;;;;;;;;;;;;23.12;57.75;100252.25;5035043;28;1068;-41
2021/07/17 01:48:13;;;;;;;;;;;;;;;23.08;58.25;100245.53;5035250;28;1082;-41
2021/07/17 01:50:41;;;;;;;;;;;;;;;23.02;58.20;100247.91;5035353;28;1004;-41
2021/07/17 01:53:08;;;;;;;;;;;;;;;23.03;58.43;100238.81;5035294;28;1055;-41
2021/07/17 01:55:36;;;;;;;;;;;;;;;22.99;58.18;100239.31;5034943;28;1167;-42
2021/07/17 01:58:03;;;;;;;;;;;;;;;22.97;58.28;100238.63;5031247;28;1576;-41
2021/07/17 02:03:06;;;;;;;;;;;;;;;22.93;58.23;100235.44;5029028;28;1427;-41
2021/07/17 02:05:32;;;;;;;;;;;;;;;23.00;58.27;100239.13;5035044;28;994;-41
2021/07/17 02:07:59;;;;;;;;;;;;;;;22.98;57.97;100225.00;5034337;28;1178;-41
2021/07/17 02:10:27;;;;;;;;;;;;;;;22.96;57.97;100224.31;5034540;28;1059;-41
2021/07/17 02:13:01;;;;;;;;;;;;;;;22.62;58.67;100240.75;5034184;28;1414;-41
2021/07/17 02:15:29;;;;;;;;;;;;;;;22.42;58.86;100233.06;5034609;28;1099;-41
2021/07/17 02:17:57;;;;;;;;;;;;;;;22.57;58.91;100249.38;5034747;28;1097;-41
2021/07/17 02:20:23;;;;;;;;;;;;;;;22.58;58.50;100242.13;5034564;28;1902;-41
2021/07/17 02:22:50;;;;;;;;;;;;;;;22.72;58.18;100236.03;5034676;28;1093;-41
2021/07/17 02:25:16;;;;;;;;;;;;;;;22.77;57.80;100222.03;5034638;28;1006;-41
2021/07/17 02:27:43;;;;;;;;;;;;;;;22.87;57.84;100238.00;5032462;28;1833;-42
2021/07/17 02:30:12;;;;;;;;;;;;;;;22.86;57.65;100231.78;5033319;28;1328;-41
2021/07/17 02:32:38;;;;;;;;;;;;;;;22.89;57.38;100231.41;5034276;28;1195;-41
2021/07/17 02:35:05;;;;;;;;;;;;;;;22.92;57.27;100228.38;5033984;28;1674;-41
2021/07/17 02:37:32;;;;;;;;;;;;;;;22.95;57.43;100222.63;5034145;28;1215;-41
2021/07/17 02:39:58;;;;;;;;;;;;;;;22.94;57.19;100220.97;5033909;28;1971;-41
2021/07/17 02:42:25;;;;;;;;;;;;;;;22.92;57.40;100228.38;5033623;28;1324;-41
2021/07/17 02:44:52;;;;;;;;;;;;;;;22.91;57.12;100234.78;5034101;28;1175;-41
2021/07/17 02:47:19;;;;;;;;;;;;;;;22.91;57.48;100228.56;5034295;28;1199;-41
2021/07/17 02:49:47;;;;;;;;;;;;;;;22.92;57.42;100224.81;5034368;28;1287;-41
2021/07/17 02:52:13;;;;;;;;;;;;;;;22.95;57.33;100224.50;5033956;28;1164;-41
2021/07/17 02:54:40;;;;;;;;;;;;;;;22.91;57.42;100240.16;5033473;28;1327;-41
2021/07/17 02:57:06;;;;;;;;;;;;;;;22.94;57.45;100238.97;5034125;28;1203;-41
2021/07/17 02:59:33;;;;;;;;;;;;;;;22.92;57.21;100252.66;5033622;28;1231;-41
2021/07/17 03:01:59;;;;;;;;;;;;;;;22.78;57.57;100239.88;5033398;28;2044;-41
2021/07/17 03:04:27;;;;;;;;;;;;;;;22.70;57.67;100242.59;5033477;28;1219;-41
2021/07/17 03:06:54;;;;;;;;;;;;;;;22.53;57.96;100242.63;5033568;28;1944;-41
2021/07/17 03:09:20;;;;;;;;;;;;;;;22.54;58.01;100252.41;5033939;28;1231;-41
2021/07/17 03:11:46;;;;;;;;;;;;;;;22.70;57.83;100247.97;5036444;28;1222;-41
2021/07/17 03:14:13;;;;;;;;;;;;;;;22.78;57.59;100240.72;5046661;28;1972;-41
2021/07/17 03:16:39;;;;;;;;;;;;;;;22.85;57.79;100246.25;5030860;28;1654;-42
2021/07/17 03:19:07;;;;;;;;;;;;;;;22.88;57.10;100251.31;5031459;28;1284;-41
2021/07/17 03:21:36;;;;;;;;;;;;;;;22.89;57.17;100254.84;5033325;28;1906;-41
2021/07/17 03:24:02;;;;;;;;;;;;;;;22.84;57.56;100247.28;5033598;28;1295;-41
2021/07/17 03:26:28;;;;;;;;;;;;;;;22.97;57.42;100254.81;5033128;28;1380;-41
2021/07/17 03:28:55;;;;;;;;;;;;;;;22.85;57.61;100243.56;5033553;28;1250;-41
2021/07/17 03:31:26;;;;;;;;;;;;;;;22.71;58.19;100252.38;5033071;28;1399;-41
2021/07/17 03:33:52;;;;;;;;;;;;;;;22.79;58.00;100250.50;5033264;28;1227;-41
2021/07/17 03:36:19;;;;;;;;;;;;;;;22.91;57.91;100256.34;5033483;28;1207;-42
2021/07/17 03:38:47;;;;;;;;;;;;;;;22.91;57.77;100245.56;5033486;28;1255;-41
2021/07/17 03:41:13;;;;;;;;;;;;;;;22.94;57.76;100244.38;5033117;28;2006;-41
2021/07/17 03:43:40;;;;;;;;;;;;;;;23.00;57.66;100233.75;5033169;28;1223;-41
2021/07/17 03:46:06;;;;;;;;;;;;;;;23.05;57.75;100260.22;5033443;28;1235;-41
2021/07/17 03:48:32;;;;;;;;;;;;;;;22.93;57.45;100265.09;5032959;28;1235;-41
2021/07/17 03:50:59;;;;;;;;;;;;;;;22.68;58.70;100260.78;5033208;28;1712;-41
2021/07/17 03:53:25;;;;;;;;;;;;;;;22.73;58.38;100269.22;5033361;28;1278;-41
2021/07/17 03:55:53;;;;;;;;;;;;;;;22.57;58.92;100275.47;5033116;28;1437;-41
2021/07/17 03:58:20;;;;;;;;;;;;;;;22.87;58.41;100275.75;5033280;28;1291;-41
2021/07/17 04:00:46;;;;;;;;;;;;;;;23.02;57.93;100269.50;5032924;28;1906;-41
2021/07/17 04:03:13;;;;;;;;;;;;;;;23.18;57.61;100282.06;5033004;28;1396;-41
2021/07/17 04:05:39;;;;;;;;;;;;;;;23.25;57.32;100268.72;5033127;28;1172;-41
2021/07/17 04:08:06;;;;;;;;;;;;;;;23.30;57.06;100270.88;5032744;28;1344;-43
2021/07/17 04:10:33;;;;;;;;;;;;;;;23.36;57.27;100271.03;5031472;28;1192;-41
2021/07/17 04:13:03;;;;;;;;;;;;;;;23.40;57.52;100283.16;5032650;28;1680;-41
2021/07/17 04:15:29;;;;;;;;;;;;;;;23.38;57.25;100271.69;5033181;28;1211;-41
2021/07/17 04:17:56;;;;;;;;;;;;;;;23.50;57.38;100268.63;5033142;28;1272;-41
2021/07/17 04:20:22;;;;;;;;;;;;;;;23.49;57.32;100262.34;5033059;28;1297;-41
2021/07/17 04:22:49;;;;;;;;;;;;;;;23.51;57.18;100265.72;5033018;28;1954;-41
2021/07/17 04:25:15;;;;;;;;;;;;;;;23.58;57.71;100257.78;5032744;28;1287;-41
2021/07/17 04:27:42;;;;;;;;;;;;;;;23.63;57.37;100258.06;5032705;28;1943;-41
2021/07/17 04:30:11;;;;;;;;;;;;;;;23.75;57.19;100270.13;5034115;28;1297;-41
2021/07/17 04:32:37;;;;;;;;;;;;;;;23.66;57.67;100249.63;5036533;28;1199;-41
2021/07/17 04:35:04;;;;;;;;;;;;;;;23.47;57.84;100253.59;5036620;28;1238;-41
2021/07/17 04:37:30;;;;;;;;;;;;;;;23.53;57.62;100262.84;5036574;28;1310;-41
2021/07/17 04:39:57;;;;;;;;;;;;;;;23.69;57.57;100257.34;5035796;28;1472;-41
2021/07/17 04:42:23;;;;;;;;;;;;;;;23.96;57.85;100258.72;5036181;28;1976;-41
2021/07/17 04:44:50;;;;;;;;;;;;;;;23.94;57.05;100254.50;5035972;28;1266;-41
2021/07/17 04:50:15;;;;;;;;;;;;;;;23.76;56.92;100257.47;5031667;28;1659;-41
2021/07/17 04:52:44;;;;;;;;;;;;;;;23.69;56.77;100259.22;5044416;28;1223;-42
2021/07/17 04:55:11;;;;;;;;;;;;;;;23.69;57.20;100260.03;5035947;28;1484;-41
2021/07/17 04:57:40;;;;;;;;;;;;;;;23.70;57.29;100260.91;5033175;28;1735;-41
2021/07/17 05:00:16;;;;;;;;;;;;;;;23.73;57.49;100250.56;5034145;28;1882;-42
2021/07/17 05:03:01;;;;;;;;;;;;;;;23.73;57.78;100260.53;5037988;28;1909;-41
2021/07/17 05:05:31;;;;;;;;;;;;;;;23.79;57.56;100246.34;5031503;28;1705;-41
2021/07/17 05:08:00;;;;;;;;;;;;;;;23.93;57.92;100239.31;5032483;28;1553;-42
2021/07/17 05:10:26;;;;;;;;;;;;;;;24.08;58.22;100247.47;5034233;28;1329;-41
2021/07/17 05:12:53;;;;;;;;;;;;;;;24.15;58.16;100238.47;5034535;28;1757;-41
2021/07/17 05:15:20;;;;;;;;;;;;;;;24.31;58.46;100233.91;5039849;28;1579;-42
2021/07/17 05:17:47;;;;;;;;;;;;;;;24.35;58.49;100238.78;5052595;28;990;-42
2021/07/17 05:20:15;;;;;;;;;;;;;;;24.41;58.52;100239.91;5053309;28;1081;-42
2021/07/17 05:22:41;;;;;;;;;;;;;;;24.40;57.81;100232.81;5055088;28;1906;-41
2021/07/17 05:25:09;;;;;;;;;;;;;;;24.44;58.56;100244.94;5055402;28;1111;-41
2021/07/17 05:27:35;;;;;;;;;;;;;;;24.46;58.69;100247.47;5055643;28;1071;-41
2021/07/17 05:30:02;;;;;;;;;;;;;;;24.43;58.50;100232.44;5054010;28;1006;-41
2021/07/17 05:32:28;;;;;;;;;;;;;;;24.46;59.00;100250.19;5055585;28;1003;-41
2021/07/17 05:34:54;;;;;;;;;;;;;;;24.40;58.51;100241.75;5055533;28;1003;-41
2021/07/17 05:37:24;;;;;;;;;;;;;;;24.43;58.67;100240.56;5055490;28;1081;-41
2021/07/17 05:39:51;;;;;;;;;;;;;;;24.40;58.56;100230.13;5055552;28;1007;-41
2021/07/17 05:42:17;;;;;;;;;;;;;;;24.47;58.97;100244.59;5054565;28;1977;-41
2021/07/17 05:44:44;;;;;;;;;;;;;;;24.43;59.08;100243.25;5055331;28;1124;-41
2021/07/17 05:47:10;;;;;;;;;;;;;;;24.45;58.96;100233.09;5055178;28;1078;-41
2021/07/17 05:49:37;;;;;;;;;;;;;;;24.44;58.71;100239.53;5054983;28;961;-41
2021/07/17 05:52:03;;;;;;;;;;;;;;;24.50;58.83;100252.34;5055256;28;1002;-41
2021/07/17 05:54:31;;;;;;;;;;;;;;;24.49;59.27;100245.25;5055127;28;1003;-41
2021/07/17 05:56:58;;;;;;;;;;;;;;;24.53;59.36;100245.72;5055125;28;1090;-41
2021/07/17 05:59:24;;;;;;;;;;;;;;;24.47;58.55;100241.88;5054776;28;1064;-41
2021/07/17 06:01:51;;;;;;;;;;;;;;;24.56;59.28;100250.78;5054547;28;1967;-42
2021/07/17 06:04:17;;;;;;;;;;;;;;;24.53;59.33;100241.19;5054796;28;1244;-41
2021/07/17 06:06:44;;;;;;;;;;;;;;;24.56;59.15;100246.19;5054549;28;1107;-41
2021/07/17 06:09:10;;;;;;;;;;;;;;;24.56;58.95;100223.75;5054637;28;1091;-41
2021/07/17 06:11:38;;;;;;;;;;;;;;;24.56;58.89;100269.69;5054837;28;1045;-41
2021/07/17 06:14:04;;;;;;;;;;;;;;;24.57;58.72;100247.91;5054505;28;1174;-41
2021/07/17 06:16:31;;;;;;;;;;;;;;;24.56;59.20;100240.78;5054458;28;1079;-41
2021/07/17 06:18:57;;;;;;;;;;;;;;;24.58;59.59;100230.63;5054926;28;1081;-41
2021/07/17 06:21:24;;;;;;;;;;;;;;;24.60;58.79;100236.69;5054580;28;1977;-41
2021/07/17 06:23:50;;;;;;;;;;;;;;;24.63;58.68;100237.34;5054629;28;1085;-41
2021/07/17 06:26:17;;;;;;;;;;;;;;;24.60;58.65;100238.56;5054819;28;1046;-41
2021/07/17 06:28:45;;;;;;;;;;;;;;;24.63;58.85;100231.94;5054473;28;1046;-41
2021/07/17 06:31:11;;;;;;;;;;;;;;;24.65;59.17;100238.88;5054166;28;1071;-41
2021/07/17 06:33:38;;;;;;;;;;;;;;;24.65;59.04;100233.44;5054432;28;1027;-41
2021/07/17 06:36:04;;;;;;;;;;;;;;;24.67;59.65;100241.34;5054387;28;1081;-41
2021/07/17 06:38:31;;;;;;;;;;;;;;;24.70;59.72;100230.19;5054044;28;1071;-41
2021/07/17 06:40:57;;;;;;;;;;;;;;;24.67;59.01;100214.31;5054217;28;1066;-41
2021/07/17 06:43:24;;;;;;;;;;;;;;;24.68;59.27;100227.66;5054188;28;1903;-41
2021/07/17 06:45:51;;;;;;;;;;;;;;;24.68;59.04;100224.97;5054195;28;1087;-41
2021/07/17 06:48:18;;;;;;;;;;;;;;;24.75;59.35;100227.75;5054154;28;1079;-41
2021/07/17 06:50:44;;;;;;;;;;;;;;;24.71;59.43;100213.78;5054148;28;1044;-41
2021/07/17 06:53:11;;;;;;;;;;;;;;;24.69;59.12;100213.13;5053286;28;1067;-41
2021/07/17 06:55:38;;;;;;;;;;;;;;;24.75;59.68;100233.16;5053745;28;1142;-41
2021/07/17 06:58:04;;;;;;;;;;;;;;;24.71;59.78;100221.03;5053978;28;999;-41
2021/07/17 07:00:33;;;;;;;;;;;;;;;24.74;60.05;100226.91;5054207;28;1058;-41
2021/07/17 07:03:01;;;;;;;;;;;;;;;24.73;59.62;100222.53;5053724;28;1981;-41
2021/07/17 07:05:28;;;;;;;;;;;;;;;24.73;59.64;100213.56;5053805;28;1024;-41
2021/07/17 07:07:54;;;;;;;;;;;;;;;24.73;59.43;100218.97;5053869;28;1012;-41
2021/07/17 07:10:21;;;;;;;;;;;;;;;24.77;59.71;100214.88;5053875;28;1056;-41
2021/07/17 07:12:47;;;;;;;;;;;;;;;24.74;59.90;100212.56;5053787;28;1031;-41
2021/07/17 07:15:14;;;;;;;;;;;;;;;24.76;60.14;100205.09;5053767;28;1003;-41
2021/07/17 07:17:40;;;;;;;;;;;;;;;24.75;59.55;100222.34;5053649;28;1085;-41
2021/07/17 07:20:09;;;;;;;;;;;;;;;24.73;59.60;100198.22;5054015;28;1085;-41
2021/07/17 07:22:35;;;;;;;;;;;;;;;24.72;59.76;100196.50;5053568;28;1910;-41
2021/07/17 07:25:02;;;;;;;;;;;;;;;24.76;59.92;100213.22;5053663;28;1039;-41
2021/07/17 07:27:28;;;;;;;;;;;;;;;24.79;60.08;100213.69;5053785;28;1949;-41
2021/07/17 07:29:55;;;;;;;;;;;;;;;24.79;60.31;100208.28;5053207;28;1261;-41
2021/07/17 07:32:21;;;;;;;;;;;;;;;24.80;60.25;100203.69;5053283;28;1083;-41
2021/07/17 07:34:47;;;;;;;;;;;;;;;24.81;59.61;100202.69;5053243;28;1127;-41
2021/07/17 07:37:15;;;;;;;;;;;;;;;24.79;59.43;100207.44;5053228;28;1162;-41
2021/07/17 07:39:42;;;;;;;;;;;;;;;24.82;59.91;100207.06;5053828;28;1077;-41
2021/07/17 07:42:08;;;;;;;;;;;;;;;24.79;59.85;100192.06;5053071;28;1902;-41
2021/07/17 07:44:36;;;;;;;;;;;;;;;24.81;60.15;100199.97;5053171;28;1099;-41
2021/07/17 07:47:03;;;;;;;;;;;;;;;24.82;60.46;100209.75;5053376;28;1058;-41
2021/07/17 07:49:29;;;;;;;;;;;;;;;24.83;60.06;100197.06;5053132;28;1095;-41
2021/07/17 07:51:56;;;;;;;;;;;;;;;24.81;59.61;100205.38;5053431;28;1007;-41
2021/07/17 07:54:24;;;;;;;;;;;;;;;24.82;59.70;100185.41;5053180;28;1177;-41
2021/07/17 07:56:50;;;;;;;;;;;;;;;24.85;60.38;100192.31;5053362;28;1070;-41
2021/07/17 07:59:17;;;;;;;;;;;;;;;24.85;60.19;100185.06;5053548;28;1003;-41
2021/07/17 08:01:43;;;;;;;;;;;;;;;24.85;60.80;100193.16;5053178;28;1962;-41
2021/07/17 08:04:10;;;;;;;;;;;;;;;24.83;60.32;100188.94;5053008;28;1217;-41
2021/07/17 08:06:37;;;;;;;;;;;;;;;24.86;60.57;100196.69;5057102;28;995;-41
2021/07/17 08:09:03;;;;;;;;;;;;;;;24.81;60.13;100178.34;5057388;28;2065;-41
2021/07/17 08:11:31;;;;;;;;;;;;;;;24.83;59.99;100192.53;5056821;28;1158;-41
2021/07/17 08:13:57;;;;;;;;;;;;;;;24.86;60.04;100192.13;5057109;28;1077;-41
2021/07/17 08:16:24;;;;;;;;;;;;;;;24.84;60.32;100187.94;5057046;28;1200;-41
2021/07/17 08:18:50;;;;;;;;;;;;;;;24.83;60.12;100187.09;5057175;28;1090;-41
2021/07/17 08:21:17;;;;;;;;;;;;;;;24.84;60.78;100193.34;5056954;28;1174;-41
2021/07/17 08:23:45;;;;;;;;;;;;;;;24.84;60.18;100188.78;5056529;28;1910;-41
2021/07/17 08:26:12;;;;;;;;;;;;;;;24.85;60.17;100179.66;5057054;28;1065;-41
2021/07/17 08:28:40;;;;;;;;;;;;;;;24.85;59.91;100176.94;5056824;28;1073;-41
2021/07/17 08:31:06;;;;;;;;;;;;;;;24.88;60.16;100190.06;5056721;28;1077;-41
2021/07/17 08:33:33;;;;;;;;;;;;;;;24.89;60.09;100174.66;5056453;28;1087;-41
2021/07/17 08:35:59;;;;;;;;;;;;;;;24.86;60.89;100175.91;5056662;28;1007;-41
2021/07/17 08:38:26;;;;;;;;;;;;;;;24.88;60.02;100171.13;5056333;28;1107;-41
2021/07/17 08:40:53;;;;;;;;;;;;;;;24.86;60.44;100154.25;5056192;28;1071;-42
2021/07/17 08:43:20;;;;;;;;;;;;;;;24.86;60.79;100167.78;5056462;28;1906;-41
2021/07/17 08:45:48;;;;;;;;;;;;;;;24.88;60.68;100163.03;5056496;28;1002;-41
2021/07/17 08:48:15;;;;;;;;;;;;;;;24.87;60.53;100145.13;5056434;28;1085;-41
2021/07/17 08:50:42;;;;;;;;;;;;;;;24.90;60.68;100157.44;5056633;28;1003;-41
2021/07/17 08:53:09;;;;;;;;;;;;;;;24.91;60.58;100164.50;5056301;28;1039;-41
2021/07/17 08:55:35;;;;;;;;;;;;;;;24.87;60.34;100149.69;5056256;28;1091;-41
2021/07/17 08:58:02;;;;;;;;;;;;;;;24.87;60.63;100155.97;5055968;28;1142;-41
2021/07/17 09:00:30;;;;;;;;;;;;;;;24.88;60.87;100146.78;5056212;28;1027;-41
2021/07/17 09:02:59;;;;;;;;;;;;;;;24.88;60.49;100151.38;5055678;28;1902;-41
2021/07/17 09:05:27;;;;;;;;;;;;;;;24.88;61.25;100146.78;5055879;28;1330;-41
2021/07/17 09:07:54;;;;;;;;;;;;;;;24.86;60.37;100146.16;5056087;28;1035;-41
2021/07/17 09:10:27;;;;;;;;;;;;;;;24.87;60.42;100142.44;5055941;28;931;-41
2021/07/17 09:13:05;;;;;;;;;;;;;;;24.85;60.55;100136.38;5055999;28;1106;-41
2021/07/17 09:15:32;;;;;;;;;;;;;;;24.91;60.48;100143.72;5055469;28;1217;-41
2021/07/17 09:18:00;;;;;;;;;;;;;;;24.87;60.87;100133.47;5054962;28;994;-41
2021/07/17 09:20:27;;;;;;;;;;;;;;;24.90;60.94;100141.19;5055852;28;1019;-41
2021/07/17 09:22:57;;;;;;;;;;;;;;;24.88;61.17;100135.97;5055441;28;1997;-41
2021/07/17 09:25:23;;;;;;;;;;;;;;;24.86;60.89;100131.78;5055751;28;1070;-41
2021/07/17 09:27:50;;;;;;;;;;;;;;;24.86;60.65;100119.09;5056164;28;2065;-42
2021/07/17 09:30:33;;;;;;;;;;;;;;;24.85;60.70;100125.56;5055429;28;1114;-41
2021/07/17 09:33:02;;;;;;;;;;;;;;;24.89;60.84;100137.66;5056125;28;2045;-41
2021/07/17 09:35:28;;;;;;;;;;;;;;;24.87;60.59;100118.09;5055821;28;991;-41
2021/07/17 09:37:56;;;;;;;;;;;;;;;24.87;60.83;100123.50;5055557;28;1000;-41
2021/07/17 09:40:22;;;;;;;;;;;;;;;24.93;60.71;100127.28;5055534;28;1019;-41
2021/07/17 09:42:49;;;;;;;;;;;;;;;24.87;60.75;100112.69;5055564;28;1976;-41
2021/07/17 09:45:30;;;;;;;;;;;;;;;24.88;61.54;100125.16;5055434;28;1003;-41
2021/07/17 09:47:56;;;;;;;;;;;;;;;24.90;60.75;100123.09;5054795;28;1893;-41
2021/07/17 09:50:25;;;;;;;;;;;;;;;24.88;61.23;100129.75;5055306;28;1050;-41
2021/07/17 09:52:52;;;;;;;;;;;;;;;24.88;61.16;100121.63;5054950;28;1047;-41
2021/07/17 09:55:18;;;;;;;;;;;;;;;24.91;60.93;100132.91;5055134;28;987;-41
2021/07/17 09:57:47;;;;;;;;;;;;;;;24.92;60.96;100120.22;5054891;28;1107;-41
2021/07/17 10:00:15;;;;;;;;;;;;;;;24.92;60.91;100123.75;5055109;28;1004;-41
2021/07/17 10:02:41;;;;;;;;;;;;;;;24.87;61.92;100111.81;5054593;28;1905;-41
2021/07/17 10:05:09;;;;;;;;;;;;;;;24.87;60.99;100101.88;5054492;28;1226;-42
2021/07/17 10:07:37;;;;;;;;;;;;;;;24.87;60.93;100099.16;5054655;28;1095;-41
2021/07/17 10:10:05;;;;;;;;;;;;;;;24.87;61.32;100112.69;5054895;28;1004;-41
2021/07/17 10:12:32;;;;;;;;;;;;;;;24.87;61.26;100099.16;5054548;28;1072;-41
2021/07/17 10:14:59;;;;;;;;;;;;;;;24.86;60.97;100107.47;5054796;28;1073;-41
2021/07/17 10:17:33;;;;;;;;;;;;;;;24.87;61.91;100101.88;5038793;28;1398;-41
2021/07/17 10:20:01;;;;;;;;;;;;;;;24.41;60.98;100116.44;5034779;28;1074;-41
2021/07/17 10:22:27;;;;;;;;;;;;;;;23.60;60.73;100112.69;5034446;28;1969;-41
2021/07/17 10:24:59;;;;;;;;;;;;;;;23.03;62.10;100112.06;5033772;28;1702;-41
2021/07/17 10:27:29;;;;;;;;;;;;;;;22.95;62.30;100122.88;5033677;28;1672;-40
2021/07/17 10:29:57;;;;;;;;;;;;;;;23.36;61.46;100098.34;5034030;28;1671;-41
2021/07/17 10:32:26;;;;;;;;;;;;;;;23.77;60.88;100102.56;5034807;28;1750;-40
2021/07/17 10:34:56;;;;;;;;;;;;;;;24.09;61.58;100079.81;5034055;28;1568;-41
2021/07/17 10:37:25;;;;;;;;;;;;;;;24.34;60.36;100088.47;5034397;28;1726;-41
2021/07/17 10:40:04;;;;;;;;;;;;;;;24.50;61.40;100078.50;5033973;28;1702;-42
2021/07/17 10:42:37;;;;;;;;;;;;;;;24.65;60.36;100075.78;5034247;28;1982;-41
2021/07/17 10:45:05;;;;;;;;;;;;;;;24.76;60.71;100092.38;5034084;28;1718;-41
2021/07/17 10:47:39;;;;;;;;;;;;;;;24.80;60.93;100080.13;5033790;28;1762;-41
2021/07/17 10:50:08;;;;;;;;;;;;;;;24.81;61.36;100071.00;5034206;28;1131;-41
2021/07/17 10:52:36;;;;;;;;;;;;;;;24.84;61.19;100075.19;5034226;28;1008;-41
2021/07/17 10:55:22;;;;;;;;;;;;;;;24.91;61.95;100084.22;5033926;28;1692;-41
2021/07/17 10:57:52;;;;;;;;;;;;;;;24.91;61.52;100081.53;5033848;28;1147;-41
2021/07/17 11:00:35;;;;;;;;;;;;;;;24.93;61.67;100067.78;5033933;28;2087;-41
2021/07/17 11:03:16;;;;;;;;;;;;;;;24.95;61.73;100072.00;5032811;28;1902;-41
2021/07/17 11:05:44;;;;;;;;;;;;;;;24.95;61.79;100073.88;5033903;28;1729;-41
2021/07/17 11:08:26;;;;;;;;;;;;;;;24.95;61.67;100072.00;5033858;28;1499;-41
2021/07/17 11:10:54;;;;;;;;;;;;;;;24.96;62.30;100068.25;5031804;28;1680;-41
2021/07/17 11:13:38;;;;;;;;;;;;;;;24.95;62.43;100076.56;5033516;28;1086;-41
2021/07/17 11:16:08;;;;;;;;;;;;;;;24.99;62.26;100077.84;5028294;28;1567;-41
2021/07/17 11:18:37;;;;;;;;;;;;;;;24.96;62.15;100062.84;5032847;28;1388;-41
2021/07/17 11:21:07;;;;;;;;;;;;;;;25.04;62.36;100066.47;5033019;28;1486;-41
2021/07/17 11:23:39;;;;;;;;;;;;;;;25.01;62.30;100055.00;5032884;28;1979;-41
2021/07/17 11:26:08;;;;;;;;;;;;;;;25.07;62.60;100050.69;5033735;28;1643;-41
2021/07/17 11:28:54;;;;;;;;;;;;;;;25.02;62.98;100056.66;5033752;28;1088;-41
2021/07/17 11:31:41;;;;;;;;;;;;;;;25.02;62.33;100051.25;5032953;28;1753;-41
2021/07/17 11:34:26;;;;;;;;;;;;;;;25.02;62.16;100043.13;5033390;28;1779;-41
2021/07/17 11:36:54;;;;;;;;;;;;;;;25.04;62.76;100050.22;5033229;28;1718;-41
2021/07/17 11:39:26;;;;;;;;;;;;;;;25.01;63.26;100052.28;5033378;28;1508;-41
2021/07/17 11:41:53;;;;;;;;;;;;;;;24.97;63.38;100040.19;5037839;28;946;-41
2021/07/17 11:44:26;;;;;;;;;;;;;;;24.99;63.68;100048.94;5037638;28;1981;-41
2021/07/17 11:46:53;;;;;;;;;;;;;;;25.01;64.25;100048.75;5037070;28;1572;-41
2021/07/17 11:49:21;;;;;;;;;;;;;;;24.96;63.55;100040.38;5037374;28;1536;-41
2021/07/17 11:51:54;;;;;;;;;;;;;;;24.96;63.76;100040.38;5037027;28;1569;-41
2021/07/17 11:54:52;;;;;;;;;;;;;;;25.03;64.11;100046.69;5037210;28;1739;-41
2021/07/17 11:57:20;;;;;;;;;;;;;;;25.01;63.68;100032.53;5035004;28;1491;-41
2021/07/17 11:59:58;;;;;;;;;;;;;;;25.01;63.10;100048.75;5037079;28;1541;-41
2021/07/17 12:02:25;;;;;;;;;;;;;;;25.04;63.51;100037.53;5037246;28;1943;-41
2021/07/17 12:04:53;;;;;;;;;;;;;;;25.06;63.81;100031.94;5036559;28;1981;-41
2021/07/17 12:07:20;;;;;;;;;;;;;;;25.06;63.42;100027.34;5036357;28;1215;-42
2021/07/17 12:09:48;;;;;;;;;;;;;;;25.08;62.94;100032.56;5036896;28;1691;-41
2021/07/17 12:12:20;;;;;;;;;;;;;;;25.10;63.24;100025.94;5037248;28;1050;-41
2021/07/17 12:14:48;;;;;;;;;;;;;;;25.11;63.32;100029.47;5036939;28;1797;-41
2021/07/17 12:17:24;;;;;;;;;;;;;;;25.08;62.94;100028.00;5036694;28;1773;-41
2021/07/17 12:20:04;;;;;;;;;;;;;;;25.11;62.62;100035.72;5037062;28;1826;-41
2021/07/17 12:22:32;;;;;;;;;;;;;;;25.09;62.92;100012.59;5037070;28;1705;-41
2021/07/17 12:25:05;;;;;;;;;;;;;;;25.11;63.56;100041.16;5036823;28;1976;-41
2021/07/17 12:27:34;;;;;;;;;;;;;;;25.07;63.44;100025.47;5037489;28;1953;-41
2021/07/17 12:30:02;;;;;;;;;;;;;;;25.08;63.03;100032.56;5036540;28;1715;-42
2021/07/17 12:32:34;;;;;;;;;;;;;;;25.10;63.57;100023.22;5036553;28;1537;-41
2021/07/17 12:35:04;;;;;;;;;;;;;;;25.11;63.73;100019.50;5036880;28;1775;-41
2021/07/17 12:37:33;;;;;;;;;;;;;;;25.06;63.70;100016.53;5036773;28;1139;-41
2021/07/17 12:40:06;;;;;;;;;;;;;;;25.10;63.40;100022.41;5036166;28;1694;-42
2021/07/17 12:42:35;;;;;;;;;;;;;;;25.14;63.63;100020.97;5017011;28;1092;-41
2021/07/17 12:45:05;;;;;;;;;;;;;;;25.10;63.73;100016.97;5016472;28;1906;-41
2021/07/17 12:47:36;;;;;;;;;;;;;;;25.11;63.58;100011.38;5016762;28;1016;-41
2021/07/17 12:50:04;;;;;;;;;;;;;;;25.14;63.48;100010.16;5016733;28;1080;-41
2021/07/17 12:52:34;;;;;;;;;;;;;;;25.12;62.99;100006.81;5031102;28;1625;-41
2021/07/17 12:55:10;;;;;;;;;;;;;;;25.14;63.41;100002.03;5036195;28;1621;-41
2021/07/17 12:57:38;;;;;;;;;;;;;;;25.16;63.41;100005.38;5036448;28;1787;-41